sensor_id;sensor_type;location;lat;lon;timestamp;P1;durP1;ratioP1;P2;durP2;ratioP2
6519;SDS011;3293;51.690;5.982;2023-11-21T00:02:20;28.40;;;17.17;;
6519;SDS011;3293;51.690;5.982;2023-11-21T00:07:20;33.63;;;18.97;;
6519;SDS011;3293;51.690;5.982;2023-11-21T00:12:20;33.10;;;17.97;;
6519;SDS011;3293;51.690;5.982;2023-11-21T00:17:20;33.93;;;17.27;;
6519;SDS011;3293;51.690;5.982;2023-11-21T00:22:20;38.33;;;17.47;;
6519;SDS011;3293;51.690;5.982;2023-11-21T00:27:20;39.47;;;20.60;;
6519;SDS011;3293;51.690;5.982;2023-11-21T00:32:20;42.30;;;20.30;;
6519;SDS011;3293;51.690;5.982;2023-11-21T00:37:20;37.60;;;18.77;;
6519;SDS011;3293;51.690;5.982;2023-11-21T00:42:20;39.65;;;19.45;;
6519;SDS011;3293;51.690;5.982;2023-11-21T00:47:20;40.60;;;19.87;;
6519;SDS011;3293;51.690;5.982;2023-11-21T00:52:21;44.63;;;21.67;;
6519;SDS011;3293;51.690;5.982;2023-11-21T00:57:21;42.50;;;19.15;;
6519;SDS011;3293;51.690;5.982;2023-11-21T01:02:21;40.53;;;20.57;;
6519;SDS011;3293;51.690;5.982;2023-11-21T01:07:21;48.03;;;23.77;;
6519;SDS011;3293;51.690;5.982;2023-11-21T01:12:21;49.13;;;22.73;;
6519;SDS011;3293;51.690;5.982;2023-11-21T01:17:24;50.90;;;22.97;;
6519;SDS011;3293;51.690;5.982;2023-11-21T01:22:29;50.27;;;23.10;;
6519;SDS011;3293;51.690;5.982;2023-11-21T01:27:28;61.47;;;26.53;;
6519;SDS011;3293;51.690;5.982;2023-11-21T01:32:28;55.27;;;24.53;;
6519;SDS011;3293;51.690;5.982;2023-11-21T01:37:28;54.33;;;23.63;;
6519;SDS011;3293;51.690;5.982;2023-11-21T01:42:29;53.07;;;24.50;;
6519;SDS011;3293;51.690;5.982;2023-11-21T01:47:30;42.90;;;22.63;;
6519;SDS011;3293;51.690;5.982;2023-11-21T01:52:32;53.87;;;25.07;;
6519;SDS011;3293;51.690;5.982;2023-11-21T01:57:36;56.87;;;25.13;;
6519;SDS011;3293;51.690;5.982;2023-11-21T02:02:39;57.23;;;25.00;;
6519;SDS011;3293;51.690;5.982;2023-11-21T02:07:39;63.03;;;26.77;;
6519;SDS011;3293;51.690;5.982;2023-11-21T02:12:39;56.77;;;24.00;;
6519;SDS011;3293;51.690;5.982;2023-11-21T02:17:43;70.13;;;28.47;;
6519;SDS011;3293;51.690;5.982;2023-11-21T02:22:43;66.00;;;29.23;;
6519;SDS011;3293;51.690;5.982;2023-11-21T02:27:59;68.53;;;27.87;;
6519;SDS011;3293;51.690;5.982;2023-11-21T02:33:00;71.77;;;29.07;;
6519;SDS011;3293;51.690;5.982;2023-11-21T02:38:00;73.60;;;27.33;;
6519;SDS011;3293;51.690;5.982;2023-11-21T02:43:01;75.93;;;32.07;;
6519;SDS011;3293;51.690;5.982;2023-11-21T02:48:01;56.77;;;27.20;;
6519;SDS011;3293;51.690;5.982;2023-11-21T02:53:01;75.90;;;30.17;;
6519;SDS011;3293;51.690;5.982;2023-11-21T02:58:01;54.13;;;26.33;;
6519;SDS011;3293;51.690;5.982;2023-11-21T03:03:03;63.80;;;29.23;;
6519;SDS011;3293;51.690;5.982;2023-11-21T03:08:03;60.87;;;27.67;;
6519;SDS011;3293;51.690;5.982;2023-11-21T03:13:03;66.47;;;28.03;;
6519;SDS011;3293;51.690;5.982;2023-11-21T03:18:03;60.10;;;27.77;;
6519;SDS011;3293;51.690;5.982;2023-11-21T03:23:04;70.80;;;27.67;;
6519;SDS011;3293;51.690;5.982;2023-11-21T03:28:04;53.83;;;26.53;;
6519;SDS011;3293;51.690;5.982;2023-11-21T03:33:04;55.07;;;25.30;;
6519;SDS011;3293;51.690;5.982;2023-11-21T03:38:04;42.60;;;22.77;;
6519;SDS011;3293;51.690;5.982;2023-11-21T03:43:04;48.13;;;26.13;;
6519;SDS011;3293;51.690;5.982;2023-11-21T03:48:04;61.40;;;26.00;;
6519;SDS011;3293;51.690;5.982;2023-11-21T03:53:04;66.57;;;28.63;;
6519;SDS011;3293;51.690;5.982;2023-11-21T03:58:04;50.80;;;25.23;;
6519;SDS011;3293;51.690;5.982;2023-11-21T04:03:04;55.83;;;27.13;;
6519;SDS011;3293;51.690;5.982;2023-11-21T04:08:04;57.73;;;26.20;;
6519;SDS011;3293;51.690;5.982;2023-11-21T04:13:04;47.80;;;24.57;;
6519;SDS011;3293;51.690;5.982;2023-11-21T04:18:04;53.40;;;25.43;;
6519;SDS011;3293;51.690;5.982;2023-11-21T04:23:04;52.60;;;25.53;;
6519;SDS011;3293;51.690;5.982;2023-11-21T04:28:04;54.30;;;25.77;;
6519;SDS011;3293;51.690;5.982;2023-11-21T04:33:04;50.43;;;25.43;;
6519;SDS011;3293;51.690;5.982;2023-11-21T04:38:04;48.17;;;23.90;;
6519;SDS011;3293;51.690;5.982;2023-11-21T04:43:04;50.03;;;23.50;;
6519;SDS011;3293;51.690;5.982;2023-11-21T04:48:04;69.43;;;25.83;;
6519;SDS011;3293;51.690;5.982;2023-11-21T04:53:05;45.83;;;24.13;;
6519;SDS011;3293;51.690;5.982;2023-11-21T04:58:05;50.93;;;24.73;;
6519;SDS011;3293;51.690;5.982;2023-11-21T05:03:06;47.60;;;25.10;;
6519;SDS011;3293;51.690;5.982;2023-11-21T05:08:06;48.60;;;23.80;;
6519;SDS011;3293;51.690;5.982;2023-11-21T05:13:06;57.13;;;25.27;;
6519;SDS011;3293;51.690;5.982;2023-11-21T05:18:10;45.57;;;24.83;;
6519;SDS011;3293;51.690;5.982;2023-11-21T05:23:10;49.13;;;25.27;;
6519;SDS011;3293;51.690;5.982;2023-11-21T05:28:10;60.57;;;27.87;;
6519;SDS011;3293;51.690;5.982;2023-11-21T05:33:09;49.10;;;25.13;;
6519;SDS011;3293;51.690;5.982;2023-11-21T05:38:09;54.03;;;26.57;;
6519;SDS011;3293;51.690;5.982;2023-11-21T05:43:10;52.73;;;24.23;;
6519;SDS011;3293;51.690;5.982;2023-11-21T05:48:11;50.63;;;24.73;;
6519;SDS011;3293;51.690;5.982;2023-11-21T05:53:11;47.23;;;24.90;;
6519;SDS011;3293;51.690;5.982;2023-11-21T05:58:11;46.40;;;24.43;;
6519;SDS011;3293;51.690;5.982;2023-11-21T06:03:12;44.80;;;24.20;;
6519;SDS011;3293;51.690;5.982;2023-11-21T06:08:12;45.03;;;23.10;;
6519;SDS011;3293;51.690;5.982;2023-11-21T06:13:12;47.23;;;24.27;;
6519;SDS011;3293;51.690;5.982;2023-11-21T06:18:12;49.17;;;25.40;;
6519;SDS011;3293;51.690;5.982;2023-11-21T06:23:12;49.10;;;25.87;;
6519;SDS011;3293;51.690;5.982;2023-11-21T06:28:13;45.87;;;23.13;;
6519;SDS011;3293;51.690;5.982;2023-11-21T06:33:16;55.43;;;24.83;;
6519;SDS011;3293;51.690;5.982;2023-11-21T06:38:16;44.80;;;23.83;;
6519;SDS011;3293;51.690;5.982;2023-11-21T06:43:16;43.60;;;24.47;;
6519;SDS011;3293;51.690;5.982;2023-11-21T06:48:17;44.07;;;25.37;;
6519;SDS011;3293;51.690;5.982;2023-11-21T06:53:17;52.43;;;26.70;;
6519;SDS011;3293;51.690;5.982;2023-11-21T06:58:17;47.03;;;24.13;;
6519;SDS011;3293;51.690;5.982;2023-11-21T07:03:17;40.10;;;22.63;;
6519;SDS011;3293;51.690;5.982;2023-11-21T07:08:18;49.70;;;24.57;;
6519;SDS011;3293;51.690;5.982;2023-11-21T07:13:18;45.80;;;24.33;;
6519;SDS011;3293;51.690;5.982;2023-11-21T07:18:18;48.97;;;24.60;;
6519;SDS011;3293;51.690;5.982;2023-11-21T07:23:18;42.57;;;23.87;;
6519;SDS011;3293;51.690;5.982;2023-11-21T07:28:18;41.53;;;22.10;;
6519;SDS011;3293;51.690;5.982;2023-11-21T07:33:17;42.77;;;22.93;;
6519;SDS011;3293;51.690;5.982;2023-11-21T07:38:17;42.90;;;23.83;;
6519;SDS011;3293;51.690;5.982;2023-11-21T07:43:17;42.67;;;24.13;;
6519;SDS011;3293;51.690;5.982;2023-11-21T07:48:19;41.97;;;23.47;;
6519;SDS011;3293;51.690;5.982;2023-11-21T07:53:18;40.70;;;23.60;;
6519;SDS011;3293;51.690;5.982;2023-11-21T07:58:18;44.67;;;24.43;;
6519;SDS011;3293;51.690;5.982;2023-11-21T08:03:18;43.53;;;24.37;;
6519;SDS011;3293;51.690;5.982;2023-11-21T08:08:18;43.47;;;24.37;;
6519;SDS011;3293;51.690;5.982;2023-11-21T08:13:18;45.57;;;24.67;;
6519;SDS011;3293;51.690;5.982;2023-11-21T08:18:19;44.13;;;25.23;;
6519;SDS011;3293;51.690;5.982;2023-11-21T08:23:18;43.73;;;25.13;;
6519;SDS011;3293;51.690;5.982;2023-11-21T08:28:18;38.67;;;22.93;;
6519;SDS011;3293;51.690;5.982;2023-11-21T08:33:19;42.47;;;24.07;;
6519;SDS011;3293;51.690;5.982;2023-11-21T08:38:19;39.97;;;24.43;;
6519;SDS011;3293;51.690;5.982;2023-11-21T08:43:19;38.17;;;24.60;;
6519;SDS011;3293;51.690;5.982;2023-11-21T08:48:19;33.93;;;22.40;;
6519;SDS011;3293;51.690;5.982;2023-11-21T08:53:19;33.70;;;22.57;;
6519;SDS011;3293;51.690;5.982;2023-11-21T08:58:19;37.63;;;22.97;;
6519;SDS011;3293;51.690;5.982;2023-11-21T09:03:19;32.13;;;22.17;;
6519;SDS011;3293;51.690;5.982;2023-11-21T09:08:19;30.80;;;21.00;;
6519;SDS011;3293;51.690;5.982;2023-11-21T09:13:21;30.03;;;21.23;;
6519;SDS011;3293;51.690;5.982;2023-11-21T09:18:21;31.37;;;21.47;;
6519;SDS011;3293;51.690;5.982;2023-11-21T09:23:21;26.47;;;18.23;;
6519;SDS011;3293;51.690;5.982;2023-11-21T09:28:21;26.83;;;19.60;;
6519;SDS011;3293;51.690;5.982;2023-11-21T09:33:21;27.30;;;19.53;;
6519;SDS011;3293;51.690;5.982;2023-11-21T09:38:24;25.97;;;19.10;;
6519;SDS011;3293;51.690;5.982;2023-11-21T09:43:24;23.30;;;17.33;;
6519;SDS011;3293;51.690;5.982;2023-11-21T09:48:26;25.57;;;17.57;;
6519;SDS011;3293;51.690;5.982;2023-11-21T09:53:28;30.00;;;18.97;;
6519;SDS011;3293;51.690;5.982;2023-11-21T09:58:32;27.97;;;18.47;;
6519;SDS011;3293;51.690;5.982;2023-11-21T10:03:35;25.47;;;17.63;;
6519;SDS011;3293;51.690;5.982;2023-11-21T10:08:36;28.27;;;18.37;;
6519;SDS011;3293;51.690;5.982;2023-11-21T10:13:36;31.70;;;19.07;;
6519;SDS011;3293;51.690;5.982;2023-11-21T10:18:37;28.27;;;18.37;;
6519;SDS011;3293;51.690;5.982;2023-11-21T10:23:39;28.23;;;18.37;;
6519;SDS011;3293;51.690;5.982;2023-11-21T10:28:39;34.80;;;20.20;;
6519;SDS011;3293;51.690;5.982;2023-11-21T10:33:41;30.33;;;17.97;;
6519;SDS011;3293;51.690;5.982;2023-11-21T10:38:44;31.80;;;19.83;;
6519;SDS011;3293;51.690;5.982;2023-11-21T10:43:45;32.23;;;20.63;;
6519;SDS011;3293;51.690;5.982;2023-11-21T10:48:44;31.47;;;20.50;;
6519;SDS011;3293;51.690;5.982;2023-11-21T10:53:45;34.23;;;20.87;;
6519;SDS011;3293;51.690;5.982;2023-11-21T10:58:45;33.77;;;21.30;;
6519;SDS011;3293;51.690;5.982;2023-11-21T11:03:45;33.40;;;21.23;;
6519;SDS011;3293;51.690;5.982;2023-11-21T11:08:46;37.47;;;22.30;;
6519;SDS011;3293;51.690;5.982;2023-11-21T11:13:48;34.97;;;20.93;;
6519;SDS011;3293;51.690;5.982;2023-11-21T11:18:48;34.70;;;20.97;;
6519;SDS011;3293;51.690;5.982;2023-11-21T11:29:29;36.33;;;21.40;;
6519;SDS011;3293;51.690;5.982;2023-11-21T11:39:52;42.10;;;21.63;;
6519;SDS011;3293;51.690;5.982;2023-11-21T11:44:53;39.60;;;21.77;;
6519;SDS011;3293;51.690;5.982;2023-11-21T11:49:57;39.30;;;21.33;;
6519;SDS011;3293;51.690;5.982;2023-11-21T11:55:19;29.77;;;18.93;;
6519;SDS011;3293;51.690;5.982;2023-11-21T12:00:21;35.97;;;20.37;;
6519;SDS011;3293;51.690;5.982;2023-11-21T12:05:26;35.53;;;20.97;;
6519;SDS011;3293;51.690;5.982;2023-11-21T12:10:33;35.43;;;19.30;;
6519;SDS011;3293;51.690;5.982;2023-11-21T12:15:34;31.33;;;19.20;;
6519;SDS011;3293;51.690;5.982;2023-11-21T12:20:35;41.20;;;21.23;;
6519;SDS011;3293;51.690;5.982;2023-11-21T12:25:37;40.87;;;23.57;;
6519;SDS011;3293;51.690;5.982;2023-11-21T12:30:39;40.10;;;22.20;;
6519;SDS011;3293;51.690;5.982;2023-11-21T12:35:39;37.17;;;20.80;;
6519;SDS011;3293;51.690;5.982;2023-11-21T12:40:39;36.43;;;21.47;;
6519;SDS011;3293;51.690;5.982;2023-11-21T12:45:39;35.50;;;21.53;;
6519;SDS011;3293;51.690;5.982;2023-11-21T12:50:39;37.20;;;21.27;;
6519;SDS011;3293;51.690;5.982;2023-11-21T12:55:39;37.97;;;21.87;;
6519;SDS011;3293;51.690;5.982;2023-11-21T13:00:40;36.23;;;21.13;;
6519;SDS011;3293;51.690;5.982;2023-11-21T13:05:43;39.80;;;20.83;;
6519;SDS011;3293;51.690;5.982;2023-11-21T13:10:45;37.93;;;22.77;;
6519;SDS011;3293;51.690;5.982;2023-11-21T13:15:48;23.37;;;15.23;;
6519;SDS011;3293;51.690;5.982;2023-11-21T13:20:55;24.03;;;14.73;;
6519;SDS011;3293;51.690;5.982;2023-11-21T13:25:57;24.77;;;14.60;;
6519;SDS011;3293;51.690;5.982;2023-11-21T13:30:57;21.93;;;14.80;;
6519;SDS011;3293;51.690;5.982;2023-11-21T13:36:02;23.80;;;15.37;;
6519;SDS011;3293;51.690;5.982;2023-11-21T13:41:06;25.70;;;15.83;;
6519;SDS011;3293;51.690;5.982;2023-11-21T13:46:07;20.40;;;13.53;;
6519;SDS011;3293;51.690;5.982;2023-11-21T13:51:14;15.87;;;12.23;;
6519;SDS011;3293;51.690;5.982;2023-11-21T13:56:17;23.13;;;14.50;;
6519;SDS011;3293;51.690;5.982;2023-11-21T14:01:22;30.20;;;19.23;;
6519;SDS011;3293;51.690;5.982;2023-11-21T14:06:29;31.97;;;17.73;;
6519;SDS011;3293;51.690;5.982;2023-11-21T14:11:35;32.43;;;18.50;;
6519;SDS011;3293;51.690;5.982;2023-11-21T14:16:37;31.07;;;20.20;;
6519;SDS011;3293;51.690;5.982;2023-11-21T14:21:37;34.17;;;19.87;;
6519;SDS011;3293;51.690;5.982;2023-11-21T14:26:41;33.87;;;20.43;;
6519;SDS011;3293;51.690;5.982;2023-11-21T14:31:42;44.80;;;25.17;;
6519;SDS011;3293;51.690;5.982;2023-11-21T14:36:42;31.17;;;17.97;;
6519;SDS011;3293;51.690;5.982;2023-11-21T14:41:43;29.03;;;17.63;;
6519;SDS011;3293;51.690;5.982;2023-11-21T14:46:44;31.40;;;17.50;;
6519;SDS011;3293;51.690;5.982;2023-11-21T14:51:50;30.20;;;16.47;;
6519;SDS011;3293;51.690;5.982;2023-11-21T14:57:01;30.87;;;17.03;;
6519;SDS011;3293;51.690;5.982;2023-11-21T15:02:01;29.67;;;16.27;;
6519;SDS011;3293;51.690;5.982;2023-11-21T15:07:14;44.43;;;25.03;;
6519;SDS011;3293;51.690;5.982;2023-11-21T15:12:13;33.93;;;19.63;;
6519;SDS011;3293;51.690;5.982;2023-11-21T15:17:14;29.67;;;15.83;;
6519;SDS011;3293;51.690;5.982;2023-11-21T15:22:22;33.70;;;18.27;;
6519;SDS011;3293;51.690;5.982;2023-11-21T15:27:22;29.53;;;14.63;;
6519;SDS011;3293;51.690;5.982;2023-11-21T15:32:23;25.60;;;14.17;;
6519;SDS011;3293;51.690;5.982;2023-11-21T15:37:23;19.80;;;11.63;;
6519;SDS011;3293;51.690;5.982;2023-11-21T15:42:25;24.03;;;13.33;;
6519;SDS011;3293;51.690;5.982;2023-11-21T15:47:26;22.23;;;12.50;;
6519;SDS011;3293;51.690;5.982;2023-11-21T15:52:25;23.17;;;12.37;;
6519;SDS011;3293;51.690;5.982;2023-11-21T15:57:28;26.27;;;14.50;;
6519;SDS011;3293;51.690;5.982;2023-11-21T16:02:28;24.50;;;13.17;;
6519;SDS011;3293;51.690;5.982;2023-11-21T16:07:29;27.40;;;15.50;;
6519;SDS011;3293;51.690;5.982;2023-11-21T16:12:29;25.57;;;15.70;;
6519;SDS011;3293;51.690;5.982;2023-11-21T16:17:29;31.40;;;18.53;;
6519;SDS011;3293;51.690;5.982;2023-11-21T16:22:29;38.97;;;23.67;;
6519;SDS011;3293;51.690;5.982;2023-11-21T16:27:31;27.37;;;18.73;;
6519;SDS011;3293;51.690;5.982;2023-11-21T16:32:31;26.53;;;18.33;;
6519;SDS011;3293;51.690;5.982;2023-11-21T16:37:31;22.43;;;16.33;;
6519;SDS011;3293;51.690;5.982;2023-11-21T16:42:31;20.30;;;15.20;;
6519;SDS011;3293;51.690;5.982;2023-11-21T16:47:33;17.70;;;12.90;;
6519;SDS011;3293;51.690;5.982;2023-11-21T16:52:33;15.93;;;11.77;;
6519;SDS011;3293;51.690;5.982;2023-11-21T16:57:33;15.17;;;11.23;;
6519;SDS011;3293;51.690;5.982;2023-11-21T17:02:33;14.83;;;11.33;;
6519;SDS011;3293;51.690;5.982;2023-11-21T17:07:33;17.90;;;11.97;;
6519;SDS011;3293;51.690;5.982;2023-11-21T17:12:33;13.77;;;11.20;;
6519;SDS011;3293;51.690;5.982;2023-11-21T17:17:33;17.43;;;12.10;;
6519;SDS011;3293;51.690;5.982;2023-11-21T17:22:33;13.90;;;11.27;;
6519;SDS011;3293;51.690;5.982;2023-11-21T17:27:33;16.10;;;11.23;;
6519;SDS011;3293;51.690;5.982;2023-11-21T17:32:33;15.70;;;11.43;;
6519;SDS011;3293;51.690;5.982;2023-11-21T17:37:34;16.33;;;12.23;;
6519;SDS011;3293;51.690;5.982;2023-11-21T17:42:34;14.90;;;11.67;;
6519;SDS011;3293;51.690;5.982;2023-11-21T17:47:34;18.10;;;14.05;;
6519;SDS011;3293;51.690;5.982;2023-11-21T17:52:33;18.37;;;14.00;;
6519;SDS011;3293;51.690;5.982;2023-11-21T17:57:34;17.93;;;13.40;;
6519;SDS011;3293;51.690;5.982;2023-11-21T18:02:35;20.07;;;15.07;;
6519;SDS011;3293;51.690;5.982;2023-11-21T18:07:35;17.87;;;13.23;;
6519;SDS011;3293;51.690;5.982;2023-11-21T18:12:35;19.17;;;14.40;;
6519;SDS011;3293;51.690;5.982;2023-11-21T18:17:35;21.07;;;16.03;;
6519;SDS011;3293;51.690;5.982;2023-11-21T18:22:35;20.07;;;14.47;;
6519;SDS011;3293;51.690;5.982;2023-11-21T18:27:35;23.57;;;16.93;;
6519;SDS011;3293;51.690;5.982;2023-11-21T18:32:35;23.27;;;17.00;;
6519;SDS011;3293;51.690;5.982;2023-11-21T18:37:36;23.80;;;16.13;;
6519;SDS011;3293;51.690;5.982;2023-11-21T18:42:36;26.40;;;18.23;;
6519;SDS011;3293;51.690;5.982;2023-11-21T18:47:36;24.37;;;17.63;;
6519;SDS011;3293;51.690;5.982;2023-11-21T18:52:35;30.47;;;19.53;;
6519;SDS011;3293;51.690;5.982;2023-11-21T18:57:36;25.33;;;18.03;;
6519;SDS011;3293;51.690;5.982;2023-11-21T19:02:35;21.40;;;16.00;;
6519;SDS011;3293;51.690;5.982;2023-11-21T19:07:35;21.53;;;17.03;;
6519;SDS011;3293;51.690;5.982;2023-11-21T19:12:35;20.67;;;16.53;;
6519;SDS011;3293;51.690;5.982;2023-11-21T19:17:38;27.50;;;19.40;;
6519;SDS011;3293;51.690;5.982;2023-11-21T19:22:38;23.07;;;16.73;;
6519;SDS011;3293;51.690;5.982;2023-11-21T19:27:38;22.50;;;16.40;;
6519;SDS011;3293;51.690;5.982;2023-11-21T19:32:38;26.07;;;17.80;;
6519;SDS011;3293;51.690;5.982;2023-11-21T19:37:38;24.63;;;16.37;;
6519;SDS011;3293;51.690;5.982;2023-11-21T19:42:38;28.93;;;18.93;;
6519;SDS011;3293;51.690;5.982;2023-11-21T19:47:39;32.97;;;19.33;;
6519;SDS011;3293;51.690;5.982;2023-11-21T19:52:39;23.00;;;17.30;;
6519;SDS011;3293;51.690;5.982;2023-11-21T19:57:39;23.80;;;17.00;;
6519;SDS011;3293;51.690;5.982;2023-11-21T20:02:39;23.30;;;16.03;;
6519;SDS011;3293;51.690;5.982;2023-11-21T20:07:43;21.57;;;16.43;;
6519;SDS011;3293;51.690;5.982;2023-11-21T20:12:43;20.93;;;15.70;;
6519;SDS011;3293;51.690;5.982;2023-11-21T20:17:43;22.60;;;15.30;;
6519;SDS011;3293;51.690;5.982;2023-11-21T20:22:43;18.13;;;14.03;;
6519;SDS011;3293;51.690;5.982;2023-11-21T20:27:47;19.80;;;14.27;;
6519;SDS011;3293;51.690;5.982;2023-11-21T20:32:50;19.07;;;13.63;;
6519;SDS011;3293;51.690;5.982;2023-11-21T20:37:50;22.10;;;15.00;;
6519;SDS011;3293;51.690;5.982;2023-11-21T20:42:50;21.00;;;14.27;;
6519;SDS011;3293;51.690;5.982;2023-11-21T20:47:51;34.77;;;21.67;;
6519;SDS011;3293;51.690;5.982;2023-11-21T20:52:51;26.67;;;15.90;;
6519;SDS011;3293;51.690;5.982;2023-11-21T20:57:51;51.80;;;25.80;;
6519;SDS011;3293;51.690;5.982;2023-11-21T21:02:52;40.83;;;22.17;;
6519;SDS011;3293;51.690;5.982;2023-11-21T21:07:52;36.07;;;21.33;;
6519;SDS011;3293;51.690;5.982;2023-11-21T21:12:54;69.90;;;36.20;;
6519;SDS011;3293;51.690;5.982;2023-11-21T21:17:55;26.23;;;16.20;;
6519;SDS011;3293;51.690;5.982;2023-11-21T21:22:56;25.57;;;15.57;;
6519;SDS011;3293;51.690;5.982;2023-11-21T21:27:56;25.13;;;16.10;;
6519;SDS011;3293;51.690;5.982;2023-11-21T21:32:56;30.67;;;18.13;;
6519;SDS011;3293;51.690;5.982;2023-11-21T21:37:59;24.33;;;16.20;;
6519;SDS011;3293;51.690;5.982;2023-11-21T21:42:59;28.17;;;17.77;;
6519;SDS011;3293;51.690;5.982;2023-11-21T21:48:00;24.23;;;15.77;;
6519;SDS011;3293;51.690;5.982;2023-11-21T21:53:00;26.57;;;18.67;;
6519;SDS011;3293;51.690;5.982;2023-11-21T21:58:00;24.83;;;16.00;;
6519;SDS011;3293;51.690;5.982;2023-11-21T22:03:00;23.90;;;15.93;;
6519;SDS011;3293;51.690;5.982;2023-11-21T22:08:03;23.97;;;15.30;;
6519;SDS011;3293;51.690;5.982;2023-11-21T22:13:03;24.67;;;15.50;;
6519;SDS011;3293;51.690;5.982;2023-11-21T22:18:03;27.37;;;16.03;;
6519;SDS011;3293;51.690;5.982;2023-11-21T22:23:03;24.77;;;16.60;;
6519;SDS011;3293;51.690;5.982;2023-11-21T22:28:03;24.70;;;16.63;;
6519;SDS011;3293;51.690;5.982;2023-11-21T22:33:04;22.83;;;16.03;;
6519;SDS011;3293;51.690;5.982;2023-11-21T22:38:04;26.20;;;16.40;;
6519;SDS011;3293;51.690;5.982;2023-11-21T22:43:04;27.50;;;17.33;;
6519;SDS011;3293;51.690;5.982;2023-11-21T22:48:04;24.53;;;16.67;;
6519;SDS011;3293;51.690;5.982;2023-11-21T22:53:04;23.80;;;16.70;;
6519;SDS011;3293;51.690;5.982;2023-11-21T22:58:04;29.17;;;17.40;;
6519;SDS011;3293;51.690;5.982;2023-11-21T23:03:06;24.10;;;16.70;;
6519;SDS011;3293;51.690;5.982;2023-11-21T23:08:07;27.37;;;18.13;;
6519;SDS011;3293;51.690;5.982;2023-11-21T23:13:08;30.37;;;18.70;;
6519;SDS011;3293;51.690;5.982;2023-11-21T23:18:08;26.07;;;16.90;;
6519;SDS011;3293;51.690;5.982;2023-11-21T23:23:08;27.20;;;17.83;;
6519;SDS011;3293;51.690;5.982;2023-11-21T23:28:08;26.93;;;16.90;;
6519;SDS011;3293;51.690;5.982;2023-11-21T23:33:08;25.97;;;16.47;;
6519;SDS011;3293;51.690;5.982;2023-11-21T23:38:08;25.73;;;16.50;;
6519;SDS011;3293;51.690;5.982;2023-11-21T23:43:08;27.13;;;17.87;;
6519;SDS011;3293;51.690;5.982;2023-11-21T23:48:08;30.80;;;18.13;;
6519;SDS011;3293;51.690;5.982;2023-11-21T23:53:08;30.27;;;18.33;;
6519;SDS011;3293;51.690;5.982;2023-11-21T23:58:08;29.17;;;17.87;;
